UDYZ/EVN METAR and TAF weather

Enter ICAO airport designator
Station Type Date Time Source
UDYZ METAR 2020/04/02 03:00 UTC NOAA

UDYZ 020300Z 21003KT 6000 FEW013 BKN046 08/08 Q1007 R09/290060 NOSIG


Station Type Date Time Source
UDYZ Decoded METAR 2020/04/02 03:00 UTC NOAA

Station name not available
Apr 01, 2020 - 11:00 PM EDT / 2020.04.02 0300 UTC
Wind: from the SSW (210 degrees) at 3 MPH (3 KT):0
Visibility: 3 mile(s):0
Sky conditions: mostly cloudy
Temperature: 46 F (8 C)
Dew Point: 46 F (8 C)
Relative Humidity: 100%
Pressure (altimeter): 29.74 in. Hg (1007 hPa)
ob: UDYZ 020300Z 21003KT 6000 FEW013 BKN046 08/08 Q1007 R09/290060 NOSIG
cycle: 3

Station Type Date Time Source
UDYZ TAF 2020/04/01 18:00 UTC NOAA

TAF UDYZ 011708Z 0118/0218 04006KT 9999 BKN040
TEMPO 0118/0124 VRB16KT 3500 -SHRA BR BKN030CB
TEMPO 0200/0208 -RA OVC020

Example: see airport list